createdAt,value
2018-03-02T00:01:32.968Z,96477.91
2018-03-02T00:04:01.364Z,96476.48
2018-03-02T00:06:29.697Z,96476.22
2018-03-02T00:08:59.905Z,96466.03
2018-03-02T00:11:28.977Z,96470.80
2018-03-02T00:13:57.772Z,96473.59
2018-03-02T00:16:26.181Z,96477.52
2018-03-02T00:18:54.512Z,96467.86
2018-03-02T00:21:23.976Z,96478.56
2018-03-02T00:23:52.926Z,96463.16
2018-03-02T00:26:22.125Z,96462.48
2018-03-02T00:28:51.284Z,96457.93
2018-03-02T00:31:19.650Z,96451.06
2018-03-02T00:33:48.008Z,96447.40
2018-03-02T00:36:17.604Z,96442.44
2018-03-02T00:38:46.504Z,96443.75
2018-03-02T00:41:14.872Z,96443.27
2018-03-02T00:43:44.099Z,96440.59
2018-03-02T00:46:12.445Z,96445.83
2018-03-02T00:48:40.769Z,96442.31
2018-03-02T00:51:09.153Z,96441.19
2018-03-02T00:53:37.465Z,96441.07
2018-03-02T00:56:05.788Z,96434.48
2018-03-02T00:58:34.622Z,96432.59
2018-03-02T01:01:03.198Z,96432.56
2018-03-02T01:03:31.789Z,96434.40
2018-03-02T01:06:00.843Z,96432.33
2018-03-02T01:08:29.365Z,96427.16
2018-03-02T01:10:57.828Z,96413.44
2018-03-02T01:13:26.180Z,96414.09
2018-03-02T01:15:54.572Z,96414.55
2018-03-02T01:18:23.445Z,96416.25
2018-03-02T01:20:53.211Z,96405.66
2018-03-02T01:23:21.576Z,96401.66
2018-03-02T01:25:50.484Z,96400.27
2018-03-02T01:28:19.263Z,96395.64
2018-03-02T01:30:47.960Z,96391.30
2018-03-02T01:33:17.042Z,96390.25
2018-03-02T01:35:45.682Z,96393.40
2018-03-02T01:38:15.110Z,96387.46
2018-03-02T01:40:44.381Z,96385.56
2018-03-02T01:43:12.787Z,96385.64
2018-03-02T01:45:41.108Z,96379.42
2018-03-02T01:48:09.932Z,96387.72
2018-03-02T01:50:38.462Z,96379.07
2018-03-02T01:53:06.800Z,96376.04
2018-03-02T01:55:35.145Z,96370.84
2018-03-02T01:58:03.461Z,96377.09
2018-03-02T02:00:31.851Z,96368.35
2018-03-02T02:03:00.163Z,96376.89
2018-03-02T02:05:28.480Z,96367.70
2018-03-02T02:07:58.602Z,96360.06
2018-03-02T02:10:26.957Z,96358.50
2018-03-02T02:12:55.272Z,96353.42
2018-03-02T02:15:23.659Z,96346.20
2018-03-02T02:17:52.582Z,96344.10
2018-03-02T02:20:21.674Z,96339.34
2018-03-02T02:22:50.670Z,96328.70
2018-03-02T02:25:19.317Z,96332.28
2018-03-02T02:27:48.528Z,96337.37
2018-03-02T02:30:16.880Z,96335.08
2018-03-02T02:32:46.059Z,96340.59
2018-03-02T02:35:14.629Z,96343.03
2018-03-02T02:37:43.781Z,96344.00
2018-03-02T02:40:12.684Z,96340.94
2018-03-02T02:42:41.793Z,96340.42
2018-03-02T02:45:10.584Z,96349.58
2018-03-02T02:47:40.020Z,96344.46
2018-03-02T02:50:08.398Z,96356.27
2018-03-02T02:52:36.728Z,96331.31
2018-03-02T02:55:05.189Z,96332.83
2018-03-02T02:57:33.937Z,96329.77
2018-03-02T03:00:02.348Z,96322.00
2018-03-02T03:02:30.936Z,96324.05
2018-03-02T03:04:59.537Z,96319.67
2018-03-02T03:07:27.892Z,96319.83
2018-03-02T03:09:56.832Z,96327.20
2018-03-02T03:12:26.040Z,96325.80
2018-03-02T03:14:54.552Z,96312.66
2018-03-02T03:17:23.314Z,96321.66
2018-03-02T03:19:52.266Z,96322.73
2018-03-02T03:22:21.691Z,96327.11
2018-03-02T03:24:50.156Z,96328.55
2018-03-02T03:27:18.541Z,96331.03
2018-03-02T03:29:48.410Z,96324.36
2018-03-02T03:32:17.105Z,96320.91
2018-03-02T03:34:46.557Z,96312.56
2018-03-02T03:37:16.474Z,96301.45
2018-03-02T03:39:45.300Z,96294.47
2018-03-02T03:42:13.646Z,96294.66
2018-03-02T03:44:41.969Z,96292.41
2018-03-02T03:47:11.083Z,96294.14
2018-03-02T03:49:39.494Z,96285.15
2018-03-02T03:52:08.144Z,96283.71
2018-03-02T03:54:36.496Z,96273.94
2018-03-02T03:57:05.600Z,96260.53
2018-03-02T03:59:35.422Z,96258.52
2018-03-02T04:02:04.060Z,96255.42
2018-03-02T04:04:32.371Z,96256.47
2018-03-02T04:07:00.729Z,96248.47
2018-03-02T04:09:30.024Z,96242.73
2018-03-02T04:11:58.889Z,96243.97
2018-03-02T04:14:27.243Z,96255.45
2018-03-02T04:16:55.756Z,96240.81
2018-03-02T04:19:24.984Z,96246.84
2018-03-02T04:21:54.517Z,96247.28
2018-03-02T04:24:23.503Z,96253.55
2018-03-02T04:26:52.200Z,96239.58
2018-03-02T04:29:20.762Z,96240.34
2018-03-02T04:31:50.072Z,96233.55
2018-03-02T04:34:19.028Z,96230.45
2018-03-02T04:36:47.757Z,96224.76
2018-03-02T04:39:16.412Z,96231.62
2018-03-02T04:41:45.379Z,96232.93
2018-03-02T04:44:14.621Z,96231.89
2018-03-02T04:46:43.773Z,96223.41
2018-03-02T04:49:13.024Z,96218.11
2018-03-02T04:51:41.346Z,96216.81
2018-03-02T04:54:09.664Z,96205.39
2018-03-02T04:56:38.016Z,96201.91
2018-03-02T04:59:07.084Z,96203.58
2018-03-02T05:01:35.404Z,96188.56
2018-03-02T05:04:03.784Z,96182.84
2018-03-02T05:06:32.539Z,96184.73
2018-03-02T05:09:00.868Z,96182.96
2018-03-02T05:11:29.232Z,96173.44
2018-03-02T05:13:57.560Z,96170.72
2018-03-02T05:16:25.881Z,96167.81
2018-03-02T05:18:54.314Z,96164.95
2018-03-02T05:21:22.633Z,96168.13
2018-03-02T05:23:50.958Z,96164.30
2018-03-02T05:26:19.620Z,96157.75
2018-03-02T05:28:47.950Z,96152.36
2018-03-02T05:31:16.293Z,96149.02
2018-03-02T05:33:45.264Z,96141.36
2018-03-02T05:36:13.599Z,96134.66
2018-03-02T05:38:41.917Z,96131.05
2018-03-02T05:41:10.284Z,96123.42
2018-03-02T05:43:38.614Z,96127.48
2018-03-02T05:46:09.197Z,96121.41
2018-03-02T05:48:37.504Z,96138.91
2018-03-02T05:51:05.832Z,96143.68
2018-03-02T05:53:34.372Z,96128.96
2018-03-02T05:56:02.696Z,96118.46
2018-03-02T05:58:31.060Z,96128.61
2018-03-02T06:00:59.478Z,96127.02
2018-03-02T06:03:27.796Z,96129.89
2018-03-02T06:05:56.148Z,96123.95
2018-03-02T06:08:24.473Z,96114.15
2018-03-02T06:10:52.795Z,96116.31
2018-03-02T06:13:21.156Z,96113.69
2018-03-02T06:15:49.481Z,96123.72
2018-03-02T06:18:17.796Z,96120.30
2018-03-02T06:20:46.160Z,96115.23
2018-03-02T06:23:14.479Z,96121.20
2018-03-02T06:25:43.349Z,96115.47
2018-03-02T06:28:11.883Z,96109.35
2018-03-02T06:30:40.430Z,96113.84
2018-03-02T06:33:08.753Z,96112.91
2018-03-02T06:35:37.404Z,96110.90
2018-03-02T06:38:07.003Z,96106.25
2018-03-02T06:40:35.448Z,96107.31
2018-03-02T06:43:03.769Z,96098.16
2018-03-02T06:45:32.113Z,96091.66
2018-03-02T06:48:00.974Z,96081.14
2018-03-02T06:50:29.320Z,96085.41
2018-03-02T06:53:08.856Z,96090.31
2018-03-02T06:55:37.752Z,96103.48
2018-03-02T06:58:06.140Z,96100.16
2018-03-02T07:00:35.428Z,96091.83
2018-03-02T07:03:05.168Z,96092.89
2018-03-02T07:05:34.489Z,96095.41
2018-03-02T07:08:02.841Z,96090.69
2018-03-02T07:10:31.935Z,96086.67
2018-03-02T07:13:01.116Z,96091.23
2018-03-02T07:15:29.649Z,96080.77
2018-03-02T07:17:58.016Z,96083.23
2018-03-02T07:20:26.357Z,96075.48
2018-03-02T07:22:54.681Z,96075.35
2018-03-02T07:25:23.065Z,96069.66
2018-03-02T07:27:51.497Z,96078.48
2018-03-02T07:30:19.824Z,96092.58
2018-03-02T07:32:48.188Z,96090.38
2018-03-02T07:35:16.533Z,96080.00
2018-03-02T07:37:45.508Z,96081.04
2018-03-02T07:40:13.837Z,96071.47
2018-03-02T07:42:42.156Z,96075.19
2018-03-02T07:45:11.163Z,96071.94
2018-03-02T07:47:39.485Z,96071.24
2018-03-02T07:50:07.804Z,96061.76
2018-03-02T07:52:36.151Z,96071.17
2018-03-02T07:55:04.524Z,96057.04
2018-03-02T07:57:32.836Z,96052.20
2018-03-02T08:00:01.751Z,96060.11
2018-03-02T08:02:30.132Z,96060.09
2018-03-02T08:04:58.457Z,96061.52
2018-03-02T08:07:26.778Z,96055.55
2018-03-02T08:09:55.152Z,96048.16
2018-03-02T08:12:24.471Z,96044.20
2018-03-02T08:14:52.785Z,96040.86
2018-03-02T08:17:21.205Z,96038.05
2018-03-02T08:19:49.528Z,96033.77
2018-03-02T08:22:17.848Z,96031.36
2018-03-02T08:24:46.523Z,96027.95
2018-03-02T08:27:14.844Z,96023.80
2018-03-02T08:29:43.924Z,96024.42
2018-03-02T08:32:13.465Z,96022.67
2018-03-02T08:34:41.795Z,96018.58
2018-03-02T08:37:10.313Z,96027.55
2018-03-02T08:39:38.870Z,96039.70
2018-03-02T08:42:07.485Z,96035.59
2018-03-02T08:44:35.812Z,96040.25
2018-03-02T08:47:04.188Z,96030.22
2018-03-02T08:49:32.521Z,96022.73
2018-03-02T08:52:00.843Z,96022.92
2018-03-02T08:54:29.660Z,96025.55
2018-03-02T08:56:57.980Z,96035.31
2018-03-02T08:59:26.304Z,96030.39
2018-03-02T09:01:54.686Z,96026.49
2018-03-02T09:04:23.007Z,96025.89
2018-03-02T09:06:51.340Z,96020.46
2018-03-02T09:09:19.727Z,96017.77
2018-03-02T09:11:48.058Z,96014.67
2018-03-02T09:14:16.376Z,96011.58
2018-03-02T09:16:45.040Z,96010.12
2018-03-02T09:19:13.360Z,96010.13
2018-03-02T09:21:41.690Z,96006.38
2018-03-02T09:24:10.088Z,96009.83
2018-03-02T09:26:38.407Z,96002.38
2018-03-02T09:29:06.717Z,95997.83
2018-03-02T09:31:35.076Z,95988.56
2018-03-02T09:34:03.720Z,95999.18
2018-03-02T09:36:32.064Z,95993.67
2018-03-02T09:39:00.608Z,95989.32
2018-03-02T09:41:29.380Z,95982.95
2018-03-02T09:43:57.748Z,95989.69
2018-03-02T09:46:26.056Z,95990.13
2018-03-02T09:48:54.429Z,95986.47
2018-03-02T09:51:23.558Z,95992.28
2018-03-02T09:53:51.873Z,95982.73
2018-03-02T09:56:20.248Z,95992.66
2018-03-02T09:58:48.556Z,95995.88
2018-03-02T10:01:16.865Z,96004.76
2018-03-02T10:03:45.713Z,95998.80
2018-03-02T10:06:14.076Z,95993.77
2018-03-02T10:08:42.680Z,95992.30
2018-03-02T10:11:10.999Z,95993.42
2018-03-02T10:13:39.552Z,95982.73
2018-03-02T10:16:08.099Z,95991.11
2018-03-02T10:18:36.768Z,95979.58
2018-03-02T10:21:05.128Z,95975.30
2018-03-02T10:23:33.544Z,95977.48
2018-03-02T10:26:01.849Z,95978.53
2018-03-02T10:28:30.925Z,95980.80
2018-03-02T10:30:59.280Z,95980.36
2018-03-02T10:33:27.694Z,95982.78
2018-03-02T10:35:56.572Z,95988.77
2018-03-02T10:38:24.884Z,95975.36
2018-03-02T10:40:53.193Z,95980.55
2018-03-02T10:43:21.821Z,95982.84
2018-03-02T10:45:51.882Z,95995.59
2018-03-02T10:48:20.452Z,95987.73
2018-03-02T10:50:49.134Z,95981.02
2018-03-02T10:53:17.723Z,95978.31
2018-03-02T10:55:46.048Z,95980.09
2018-03-02T10:58:14.872Z,95975.01
2018-03-02T11:00:48.680Z,95971.14
2018-03-02T11:03:22.407Z,95967.84
2018-03-02T11:05:50.716Z,95965.84
2018-03-02T11:08:19.030Z,95963.84
2018-03-02T11:10:47.396Z,95963.44
2018-03-02T11:13:16.984Z,95962.66
2018-03-02T11:15:45.296Z,95958.73
2018-03-02T11:18:14.376Z,95956.33
2018-03-02T11:20:42.717Z,95954.37
2018-03-02T11:23:11.034Z,95956.45
2018-03-02T11:25:41.556Z,95951.57
2018-03-02T11:28:09.913Z,95949.33
2018-03-02T11:30:38.219Z,95957.48
2018-03-02T11:33:06.573Z,95959.91
2018-03-02T11:35:35.597Z,95965.61
2018-03-02T11:38:03.922Z,95977.58
2018-03-02T11:40:32.831Z,95981.97
2018-03-02T11:43:02.044Z,95984.70
2018-03-02T11:45:31.149Z,95984.53
2018-03-02T11:48:00.956Z,95987.33
2018-03-02T11:50:29.944Z,95998.53
2018-03-02T11:52:59.244Z,96006.70
2018-03-02T11:55:28.348Z,96013.03
2018-03-02T11:57:57.219Z,96018.15
2018-03-02T12:00:25.587Z,96014.66
2018-03-02T12:02:54.216Z,96020.26
2018-03-02T12:05:23.263Z,96027.50
2018-03-02T12:07:52.333Z,96024.63
2018-03-02T12:10:21.177Z,96033.30
2018-03-02T12:12:49.884Z,96038.92
2018-03-02T12:15:18.954Z,96047.36
2018-03-02T12:17:47.256Z,96057.30
2018-03-02T12:20:16.392Z,96055.19
2018-03-02T12:22:44.744Z,96048.48
2018-03-02T12:25:13.037Z,96047.19
2018-03-02T12:27:42.673Z,96061.78
2018-03-02T12:30:10.979Z,96058.80
2018-03-02T12:32:39.287Z,96058.53
2018-03-02T12:35:08.705Z,96070.44
2018-03-02T12:37:37.009Z,96066.25
2018-03-02T12:40:05.536Z,96069.91
2018-03-02T12:42:34.544Z,96077.45
2018-03-02T12:45:03.012Z,96075.63
2018-03-02T12:47:32.118Z,96077.69
2018-03-02T12:50:01.092Z,96075.84
2018-03-02T12:52:29.456Z,96082.58
2018-03-02T12:54:58.461Z,96089.58
2018-03-02T12:57:26.776Z,96092.78
2018-03-02T12:59:55.447Z,96101.33
2018-03-02T13:02:23.811Z,96104.23
2018-03-02T13:04:52.918Z,96107.70
2018-03-02T13:07:21.234Z,96105.41
2018-03-02T13:09:50.011Z,96114.88
2018-03-02T13:12:18.402Z,96110.10
2018-03-02T13:14:46.820Z,96115.38
2018-03-02T13:17:15.250Z,96114.70
2018-03-02T13:19:43.564Z,96119.54
2018-03-02T13:22:30.013Z,96120.01
2018-03-02T13:24:58.423Z,96130.91
2018-03-02T13:27:44.661Z,96130.10
2018-03-02T13:30:13.763Z,96127.49
2018-03-02T13:32:44.002Z,96118.78
2018-03-02T13:35:12.417Z,96101.61
2018-03-02T13:37:40.932Z,96109.27
2018-03-02T13:40:26.845Z,96112.57
2018-03-02T13:42:55.733Z,96104.23
2018-03-02T13:45:24.612Z,96087.09
2018-03-02T14:01:33.776Z,96115.38
2018-03-02T14:04:19.882Z,96117.89
2018-03-02T14:06:48.310Z,96124.00
2018-03-02T14:09:17.616Z,96127.19
2018-03-02T14:11:46.488Z,96129.20
2018-03-02T14:14:15.299Z,96138.26
2018-03-02T14:16:43.575Z,96139.78
2018-03-02T14:19:11.888Z,96147.45
2018-03-02T14:21:40.705Z,96148.09
2018-03-02T14:24:09.227Z,96145.51
2018-03-02T14:26:38.415Z,96151.77
2018-03-02T14:29:07.071Z,96144.63
2018-03-02T14:31:35.941Z,96157.71
2018-03-02T14:34:04.397Z,96159.46
2018-03-02T14:36:32.700Z,96158.09
2018-03-02T14:39:01.044Z,96157.23
2018-03-02T14:41:29.352Z,96164.38
2018-03-02T14:43:57.662Z,96164.45
2018-03-02T14:46:26.800Z,96170.55
2018-03-02T14:48:55.556Z,96176.69
2018-03-02T14:51:24.952Z,96169.41
2018-03-02T14:53:53.421Z,96172.03
2018-03-02T14:56:21.838Z,96174.48
2018-03-02T14:58:50.384Z,96178.39
2018-03-02T15:01:18.724Z,96177.47
2018-03-02T15:03:47.372Z,96177.81
2018-03-02T15:06:21.678Z,96184.48
2018-03-02T15:08:49.997Z,96188.65
2018-03-02T15:11:18.352Z,96182.27
2018-03-02T15:13:47.512Z,96187.61
2018-03-02T15:16:15.887Z,96197.59
2018-03-02T15:18:44.244Z,96197.47
2018-03-02T15:21:13.036Z,96206.55
2018-03-02T15:23:41.412Z,96205.40
2018-03-02T15:26:09.717Z,96208.83
2018-03-02T15:28:38.985Z,96213.00
2018-03-02T15:31:07.872Z,96215.45
2018-03-02T15:33:36.697Z,96218.88
2018-03-02T15:36:05.509Z,96218.77
2018-03-02T15:38:33.945Z,96220.39
2018-03-02T15:41:02.926Z,96222.52
2018-03-02T15:43:32.832Z,96228.00
2018-03-02T15:46:01.598Z,96233.56
2018-03-02T15:48:29.904Z,96239.34
2018-03-02T15:50:58.266Z,96242.36
2018-03-02T15:53:26.656Z,96239.08
2018-03-02T15:55:54.965Z,96244.59
2018-03-02T15:58:23.316Z,96250.02
2018-03-02T16:00:52.222Z,96250.08
2018-03-02T16:03:20.568Z,96254.36
2018-03-02T16:05:48.913Z,96252.17
2018-03-02T16:08:17.249Z,96256.38
2018-03-02T16:10:45.567Z,96260.76
2018-03-02T16:13:13.916Z,96250.87
2018-03-02T16:15:42.324Z,96260.94
2018-03-02T16:18:10.998Z,96261.80
2018-03-02T16:20:40.651Z,96267.30
2018-03-02T16:23:09.039Z,96268.17
2018-03-02T16:25:38.057Z,96272.25
2018-03-02T16:28:06.392Z,96275.86
2018-03-02T16:30:35.008Z,96283.83
2018-03-02T16:33:03.407Z,96280.33
2018-03-02T16:35:31.872Z,96289.42
2018-03-02T16:38:00.224Z,96298.30
2018-03-02T16:40:28.581Z,96298.88
2018-03-02T16:42:58.123Z,96308.80
2018-03-02T16:45:27.016Z,96302.52
2018-03-02T16:47:55.377Z,96310.45
2018-03-02T16:50:24.315Z,96306.13
2018-03-02T16:52:53.857Z,96305.78
2018-03-02T16:55:22.173Z,96303.75
2018-03-02T16:57:50.625Z,96303.47
2018-03-02T17:00:19.791Z,96306.88
2018-03-02T17:02:48.516Z,96306.01
2018-03-02T17:05:17.438Z,96310.06
2018-03-02T17:07:47.284Z,96318.48
2018-03-02T17:10:18.032Z,96320.55
2018-03-02T17:12:47.018Z,96321.15
2018-03-02T17:15:15.389Z,96334.38
2018-03-02T17:17:43.888Z,96334.22
2018-03-02T17:20:12.700Z,96336.95
2018-03-02T17:22:41.448Z,96336.73
2018-03-02T17:25:10.491Z,96337.95
2018-03-02T17:27:39.060Z,96334.38
2018-03-02T17:30:07.440Z,96335.86
2018-03-02T17:32:36.021Z,96344.58
2018-03-02T17:35:05.581Z,96347.16
2018-03-02T17:37:34.028Z,96347.19
2018-03-02T17:40:02.377Z,96348.31
2018-03-02T17:42:31.245Z,96345.76
2018-03-02T17:44:59.693Z,96350.84
2018-03-02T17:47:28.011Z,96350.37
2018-03-02T17:49:56.335Z,96351.02
2018-03-02T17:52:24.676Z,96358.22
2018-03-02T17:54:52.983Z,96358.48
2018-03-02T17:57:21.984Z,96359.37
2018-03-02T17:59:51.207Z,96360.56
2018-03-02T18:02:19.540Z,96369.70
2018-03-02T18:04:48.247Z,96369.95
2018-03-02T18:07:16.945Z,96376.06
2018-03-02T18:09:45.328Z,96380.50
2018-03-02T18:12:14.169Z,96382.56
2018-03-02T18:14:43.113Z,96379.02
2018-03-02T18:17:11.509Z,96378.98
2018-03-02T18:19:40.430Z,96378.93
2018-03-02T18:22:08.832Z,96382.85
2018-03-02T18:24:37.199Z,96383.31
2018-03-02T18:27:06.277Z,96386.78
2018-03-02T18:29:34.597Z,96389.02
2018-03-02T18:32:03.644Z,96388.25
2018-03-02T18:34:31.993Z,96388.55
2018-03-02T18:37:00.308Z,96392.06
2018-03-02T18:39:30.013Z,96390.73
2018-03-02T18:42:00.003Z,96389.53
2018-03-02T18:44:29.021Z,96387.31
2018-03-02T18:46:57.552Z,96386.07
2018-03-02T18:49:25.892Z,96382.25
2018-03-02T18:51:55.465Z,96383.84
2018-03-02T18:54:24.579Z,96390.06
2018-03-02T18:56:53.685Z,96389.15
2018-03-02T18:59:22.764Z,96389.53
2018-03-02T19:01:51.085Z,96383.52
2018-03-02T19:04:20.140Z,96385.05
2018-03-02T19:06:48.624Z,96390.41
2018-03-02T19:09:17.540Z,96383.19
2018-03-02T19:11:45.931Z,96385.79
2018-03-02T19:14:14.464Z,96382.94
2018-03-02T19:16:42.848Z,96376.49
2018-03-02T19:19:11.656Z,96381.12
2018-03-02T19:21:40.028Z,96381.55
2018-03-02T19:24:08.700Z,96379.39
2018-03-02T19:26:37.015Z,96381.73
2018-03-02T19:29:05.376Z,96380.14
2018-03-02T19:31:33.748Z,96383.52
2018-03-02T19:34:02.057Z,96390.03
2018-03-02T19:36:30.396Z,96393.39
2018-03-02T19:38:59.280Z,96394.31
2018-03-02T19:41:28.492Z,96388.82
2018-03-02T19:43:57.616Z,96392.20
2018-03-02T19:46:26.188Z,96391.45
2018-03-02T19:48:57.343Z,96385.34
2018-03-02T19:51:25.704Z,96391.36
2018-03-02T19:53:55.205Z,96387.36
2018-03-02T19:56:24.672Z,96392.55
2018-03-02T19:58:53.057Z,96394.00
2018-03-02T20:01:22.004Z,96398.86
2018-03-02T20:03:50.596Z,96395.83
2018-03-02T20:06:19.171Z,96402.09
2018-03-02T20:08:47.868Z,96403.42
2018-03-02T20:11:16.747Z,96400.98
2018-03-02T20:13:45.280Z,96409.24
2018-03-02T20:16:13.603Z,96406.47
2018-03-02T20:18:42.471Z,96407.88
2018-03-02T20:21:10.864Z,96412.25
2018-03-02T20:23:39.989Z,96405.81
2018-03-02T20:26:08.360Z,96409.13
2018-03-02T20:28:37.898Z,96407.62
2018-03-02T20:31:07.043Z,96404.98
2018-03-02T20:33:35.402Z,96408.58
2018-03-02T20:36:03.779Z,96406.85
2018-03-02T20:38:32.750Z,96403.04
2018-03-02T20:41:01.213Z,96413.05
2018-03-02T20:43:30.152Z,96409.23
2018-03-02T20:45:58.572Z,96410.47
2018-03-02T20:48:28.282Z,96409.84
2018-03-02T20:50:56.724Z,96421.58
2018-03-02T20:53:25.436Z,96423.48
2018-03-02T20:55:53.883Z,96428.75
2018-03-02T20:58:22.280Z,96426.48
2018-03-02T21:00:51.608Z,96420.52
2018-03-02T21:03:20.009Z,96422.10
2018-03-02T21:05:48.433Z,96419.53
2018-03-02T21:08:18.324Z,96415.90
2018-03-02T21:10:47.137Z,96400.65
2018-03-02T21:13:17.056Z,96408.70
2018-03-02T21:15:45.672Z,96409.73
2018-03-02T21:18:15.244Z,96418.81
2018-03-02T21:20:44.355Z,96419.42
2018-03-02T21:23:14.948Z,96416.69
2018-03-02T21:25:43.298Z,96406.69
2018-03-02T21:28:11.740Z,96404.89
2018-03-02T21:30:40.613Z,96412.95
2018-03-02T21:33:09.142Z,96412.15
2018-03-02T21:35:38.228Z,96412.71
2018-03-02T21:38:06.585Z,96410.88
2018-03-02T21:40:34.907Z,96406.97
2018-03-02T21:43:04.438Z,96408.01
2018-03-02T21:45:32.904Z,96401.22
2018-03-02T21:48:01.242Z,96409.80
2018-03-02T21:50:29.621Z,96409.17
2018-03-02T21:52:57.952Z,96413.25
2018-03-02T21:55:26.323Z,96412.21
2018-03-02T21:57:55.202Z,96406.13
2018-03-02T22:00:23.673Z,96410.41
2018-03-02T22:02:52.576Z,96402.69
2018-03-02T22:05:20.912Z,96395.33
2018-03-02T22:07:49.297Z,96400.11
2018-03-02T22:10:17.752Z,96397.63
2018-03-02T22:12:46.842Z,96403.11
2018-03-02T22:15:15.213Z,96393.95
2018-03-02T22:17:43.829Z,96390.73
2018-03-02T22:20:12.196Z,96380.05
2018-03-02T22:22:41.127Z,96372.69
2018-03-02T22:25:09.516Z,96375.97
2018-03-02T22:27:37.857Z,96381.12
2018-03-02T22:30:06.188Z,96388.41
2018-03-02T22:32:34.999Z,96396.36
2018-03-02T22:35:03.329Z,96396.91
2018-03-02T22:37:31.657Z,96387.73
2018-03-02T22:40:00.057Z,96383.69
2018-03-02T22:42:28.385Z,96390.80
2018-03-02T22:44:56.712Z,96384.38
2018-03-02T22:47:26.336Z,96396.11
2018-03-02T22:49:54.736Z,96386.38
2018-03-02T22:52:24.502Z,96395.55
2018-03-02T22:54:52.931Z,96390.52
2018-03-02T22:57:21.976Z,96396.99
2018-03-02T22:59:50.960Z,96391.03
2018-03-02T23:02:19.555Z,96391.03
2018-03-02T23:04:48.721Z,96397.83
2018-03-02T23:07:17.284Z,96393.46
2018-03-02T23:09:46.318Z,96387.95
2018-03-02T23:12:14.663Z,96396.84
2018-03-02T23:14:48.723Z,96381.37
2018-03-02T23:17:17.264Z,96387.56
2018-03-02T23:19:46.069Z,96388.60
2018-03-02T23:22:15.109Z,96387.94
2018-03-02T23:24:43.447Z,96380.43
2018-03-02T23:27:12.225Z,96382.38
2018-03-02T23:29:40.632Z,96381.12
2018-03-02T23:32:09.200Z,96393.64
2018-03-02T23:34:39.820Z,96393.16
2018-03-02T23:37:09.613Z,96396.52
2018-03-02T23:39:39.672Z,96393.81
2018-03-02T23:42:09.823Z,96393.65
2018-03-02T23:44:39.448Z,96390.98
2018-03-02T23:47:09.292Z,96392.71
2018-03-02T23:49:39.153Z,96391.63
2018-03-02T23:52:07.596Z,96390.01
2018-03-02T23:54:36.000Z,96388.52
2018-03-02T23:57:04.329Z,96386.03
2018-03-02T23:59:32.692Z,96388.00
